sensor_id;sensor_type;location;lat;lon;timestamp;P1;durP1;ratioP1;P2;durP2;ratioP2
46925;SDS011;32667;48.248;-1.700;2024-03-23T00:54:44;0.20;;;0.20;;
46925;SDS011;32667;48.248;-1.700;2024-03-23T00:57:13;0.20;;;0.20;;
46925;SDS011;32667;48.248;-1.700;2024-03-23T00:59:39;0.30;;;0.30;;
46925;SDS011;32667;48.248;-1.700;2024-03-23T01:02:07;0.25;;;0.25;;
46925;SDS011;32667;48.248;-1.700;2024-03-23T01:04:33;0.20;;;0.20;;
46925;SDS011;32667;48.248;-1.700;2024-03-23T01:07:01;0.20;;;0.20;;
46925;SDS011;32667;48.248;-1.700;2024-03-23T01:09:32;0.20;;;0.20;;
46925;SDS011;32667;48.248;-1.700;2024-03-23T01:11:57;0.30;;;0.30;;
46925;SDS011;32667;48.248;-1.700;2024-03-23T01:14:26;0.20;;;0.20;;
46925;SDS011;32667;48.248;-1.700;2024-03-23T01:16:55;0.30;;;0.30;;
46925;SDS011;32667;48.248;-1.700;2024-03-23T01:19:21;0.30;;;0.30;;
46925;SDS011;32667;48.248;-1.700;2024-03-23T01:21:46;0.20;;;0.20;;
46925;SDS011;32667;48.248;-1.700;2024-03-23T01:24:13;0.30;;;0.30;;
46925;SDS011;32667;48.248;-1.700;2024-03-23T01:26:39;0.25;;;0.25;;
46925;SDS011;32667;48.248;-1.700;2024-03-23T01:29:05;0.38;;;0.30;;
46925;SDS011;32667;48.248;-1.700;2024-03-23T01:31:33;0.30;;;0.30;;
46925;SDS011;32667;48.248;-1.700;2024-03-23T01:33:59;0.30;;;0.30;;
46925;SDS011;32667;48.248;-1.700;2024-03-23T01:36:25;0.30;;;0.30;;
46925;SDS011;32667;48.248;-1.700;2024-03-23T01:38:52;0.30;;;0.30;;
46925;SDS011;32667;48.248;-1.700;2024-03-23T01:41:18;0.30;;;0.30;;
46925;SDS011;32667;48.248;-1.700;2024-03-23T01:43:48;0.30;;;0.30;;
46925;SDS011;32667;48.248;-1.700;2024-03-23T01:46:14;0.30;;;0.30;;
46925;SDS011;32667;48.248;-1.700;2024-03-23T01:48:39;0.30;;;0.30;;
46925;SDS011;32667;48.248;-1.700;2024-03-23T01:51:07;0.30;;;0.30;;
46925;SDS011;32667;48.248;-1.700;2024-03-23T01:53:34;0.30;;;0.30;;
46925;SDS011;32667;48.248;-1.700;2024-03-23T01:56:07;0.30;;;0.30;;
46925;SDS011;32667;48.248;-1.700;2024-03-23T01:58:35;0.30;;;0.30;;
46925;SDS011;32667;48.248;-1.700;2024-03-23T02:01:01;0.30;;;0.30;;
46925;SDS011;32667;48.248;-1.700;2024-03-23T02:03:27;0.30;;;0.30;;
46925;SDS011;32667;48.248;-1.700;2024-03-23T02:05:53;0.30;;;0.30;;
46925;SDS011;32667;48.248;-1.700;2024-03-23T02:08:21;0.30;;;0.30;;
46925;SDS011;32667;48.248;-1.700;2024-03-23T02:10:51;0.30;;;0.30;;
46925;SDS011;32667;48.248;-1.700;2024-03-23T02:13:18;0.35;;;0.35;;
46925;SDS011;32667;48.248;-1.700;2024-03-23T02:15:44;0.30;;;0.30;;
46925;SDS011;32667;48.248;-1.700;2024-03-23T02:18:13;0.30;;;0.30;;
46925;SDS011;32667;48.248;-1.700;2024-03-23T02:20:42;0.30;;;0.30;;
46925;SDS011;32667;48.248;-1.700;2024-03-23T02:23:14;0.30;;;0.30;;
46925;SDS011;32667;48.248;-1.700;2024-03-23T02:25:43;0.30;;;0.30;;
46925;SDS011;32667;48.248;-1.700;2024-03-23T02:28:09;0.32;;;0.30;;
46925;SDS011;32667;48.248;-1.700;2024-03-23T02:30:35;0.30;;;0.30;;
46925;SDS011;32667;48.248;-1.700;2024-03-23T02:33:02;0.30;;;0.30;;
46925;SDS011;32667;48.248;-1.700;2024-03-23T02:35:28;0.30;;;0.30;;
46925;SDS011;32667;48.248;-1.700;2024-03-23T02:37:54;0.30;;;0.30;;
46925;SDS011;32667;48.248;-1.700;2024-03-23T02:40:22;0.30;;;0.30;;
46925;SDS011;32667;48.248;-1.700;2024-03-23T02:42:51;0.20;;;0.20;;
46925;SDS011;32667;48.248;-1.700;2024-03-23T02:45:17;0.20;;;0.20;;
46925;SDS011;32667;48.248;-1.700;2024-03-23T02:47:43;0.30;;;0.30;;
46925;SDS011;32667;48.248;-1.700;2024-03-23T02:50:09;0.30;;;0.30;;
46925;SDS011;32667;48.248;-1.700;2024-03-23T02:52:35;0.30;;;0.30;;
46925;SDS011;32667;48.248;-1.700;2024-03-23T02:55:01;0.20;;;0.20;;
46925;SDS011;32667;48.248;-1.700;2024-03-23T02:57:27;0.30;;;0.30;;
46925;SDS011;32667;48.248;-1.700;2024-03-23T02:59:53;0.30;;;0.30;;
46925;SDS011;32667;48.248;-1.700;2024-03-23T03:02:19;0.20;;;0.20;;
46925;SDS011;32667;48.248;-1.700;2024-03-23T03:04:46;0.20;;;0.20;;
46925;SDS011;32667;48.248;-1.700;2024-03-23T03:07:12;0.30;;;0.30;;
46925;SDS011;32667;48.248;-1.700;2024-03-23T03:09:38;0.30;;;0.30;;
46925;SDS011;32667;48.248;-1.700;2024-03-23T03:12:07;0.28;;;0.28;;
46925;SDS011;32667;48.248;-1.700;2024-03-23T03:14:34;0.30;;;0.30;;
46925;SDS011;32667;48.248;-1.700;2024-03-23T03:17:04;0.30;;;0.30;;
46925;SDS011;32667;48.248;-1.700;2024-03-23T03:19:30;0.30;;;0.30;;
46925;SDS011;32667;48.248;-1.700;2024-03-23T03:21:56;0.30;;;0.30;;
46925;SDS011;32667;48.248;-1.700;2024-03-23T03:24:22;0.20;;;0.20;;
46925;SDS011;32667;48.248;-1.700;2024-03-23T03:26:47;0.22;;;0.22;;
46925;SDS011;32667;48.248;-1.700;2024-03-23T03:29:14;0.20;;;0.20;;
46925;SDS011;32667;48.248;-1.700;2024-03-23T03:31:40;0.30;;;0.30;;
46925;SDS011;32667;48.248;-1.700;2024-03-23T03:34:07;0.30;;;0.30;;
46925;SDS011;32667;48.248;-1.700;2024-03-23T03:36:35;0.30;;;0.30;;
46925;SDS011;32667;48.248;-1.700;2024-03-23T03:39:01;0.30;;;0.30;;
46925;SDS011;32667;48.248;-1.700;2024-03-23T03:41:31;0.30;;;0.30;;
46925;SDS011;32667;48.248;-1.700;2024-03-23T03:43:57;0.30;;;0.30;;
46925;SDS011;32667;48.248;-1.700;2024-03-23T03:46:27;0.25;;;0.25;;
46925;SDS011;32667;48.248;-1.700;2024-03-23T03:48:56;0.30;;;0.30;;
46925;SDS011;32667;48.248;-1.700;2024-03-23T03:51:22;0.30;;;0.30;;
46925;SDS011;32667;48.248;-1.700;2024-03-23T03:53:47;0.20;;;0.20;;
46925;SDS011;32667;48.248;-1.700;2024-03-23T03:56:13;0.30;;;0.30;;
46925;SDS011;32667;48.248;-1.700;2024-03-23T03:58:39;0.30;;;0.30;;
46925;SDS011;32667;48.248;-1.700;2024-03-23T04:01:05;0.50;;;0.30;;
46925;SDS011;32667;48.248;-1.700;2024-03-23T04:03:31;0.30;;;0.30;;
46925;SDS011;32667;48.248;-1.700;2024-03-23T04:05:57;0.30;;;0.30;;
46925;SDS011;32667;48.248;-1.700;2024-03-23T04:08:23;0.30;;;0.30;;
46925;SDS011;32667;48.248;-1.700;2024-03-23T04:10:49;0.20;;;0.20;;
46925;SDS011;32667;48.248;-1.700;2024-03-23T04:13:17;0.30;;;0.30;;
46925;SDS011;32667;48.248;-1.700;2024-03-23T04:15:43;0.30;;;0.30;;
46925;SDS011;32667;48.248;-1.700;2024-03-23T04:18:08;0.30;;;0.30;;
46925;SDS011;32667;48.248;-1.700;2024-03-23T04:20:34;0.30;;;0.30;;
46925;SDS011;32667;48.248;-1.700;2024-03-23T04:23:00;0.30;;;0.30;;
46925;SDS011;32667;48.248;-1.700;2024-03-23T04:25:26;0.30;;;0.30;;
46925;SDS011;32667;48.248;-1.700;2024-03-23T04:27:52;0.30;;;0.30;;
46925;SDS011;32667;48.248;-1.700;2024-03-23T04:30:18;0.30;;;0.30;;
46925;SDS011;32667;48.248;-1.700;2024-03-23T04:32:46;0.30;;;0.30;;
46925;SDS011;32667;48.248;-1.700;2024-03-23T04:35:14;0.30;;;0.30;;
46925;SDS011;32667;48.248;-1.700;2024-03-23T04:37:40;0.28;;;0.28;;
46925;SDS011;32667;48.248;-1.700;2024-03-23T04:40:06;0.30;;;0.30;;
46925;SDS011;32667;48.248;-1.700;2024-03-23T04:42:32;0.32;;;0.30;;
46925;SDS011;32667;48.248;-1.700;2024-03-23T04:44:59;0.28;;;0.25;;
46925;SDS011;32667;48.248;-1.700;2024-03-23T04:47:25;0.30;;;0.30;;
46925;SDS011;32667;48.248;-1.700;2024-03-23T04:49:50;0.35;;;0.30;;
46925;SDS011;32667;48.248;-1.700;2024-03-23T04:52:17;0.30;;;0.30;;
46925;SDS011;32667;48.248;-1.700;2024-03-23T04:54:43;0.32;;;0.30;;
46925;SDS011;32667;48.248;-1.700;2024-03-23T04:57:09;0.30;;;0.30;;
46925;SDS011;32667;48.248;-1.700;2024-03-23T04:59:34;0.20;;;0.20;;
46925;SDS011;32667;48.248;-1.700;2024-03-23T05:02:00;0.30;;;0.30;;
46925;SDS011;32667;48.248;-1.700;2024-03-23T05:04:26;0.60;;;0.40;;
46925;SDS011;32667;48.248;-1.700;2024-03-23T05:06:52;0.30;;;0.30;;
46925;SDS011;32667;48.248;-1.700;2024-03-23T05:09:21;0.30;;;0.30;;
46925;SDS011;32667;48.248;-1.700;2024-03-23T05:11:47;0.30;;;0.30;;
46925;SDS011;32667;48.248;-1.700;2024-03-23T05:14:13;0.40;;;0.30;;
46925;SDS011;32667;48.248;-1.700;2024-03-23T05:16:39;0.30;;;0.30;;
46925;SDS011;32667;48.248;-1.700;2024-03-23T05:19:07;0.35;;;0.30;;
46925;SDS011;32667;48.248;-1.700;2024-03-23T05:21:33;0.30;;;0.30;;
46925;SDS011;32667;48.248;-1.700;2024-03-23T05:23:59;0.30;;;0.30;;
46925;SDS011;32667;48.248;-1.700;2024-03-23T05:26:24;0.30;;;0.30;;
46925;SDS011;32667;48.248;-1.700;2024-03-23T05:28:50;0.50;;;0.40;;
46925;SDS011;32667;48.248;-1.700;2024-03-23T05:31:22;0.52;;;0.40;;
46925;SDS011;32667;48.248;-1.700;2024-03-23T05:33:51;0.30;;;0.30;;
46925;SDS011;32667;48.248;-1.700;2024-03-23T05:36:17;0.30;;;0.30;;
46925;SDS011;32667;48.248;-1.700;2024-03-23T05:38:45;0.30;;;0.30;;
46925;SDS011;32667;48.248;-1.700;2024-03-23T05:41:11;0.35;;;0.30;;
46925;SDS011;32667;48.248;-1.700;2024-03-23T05:43:40;0.43;;;0.30;;
46925;SDS011;32667;48.248;-1.700;2024-03-23T05:46:06;0.35;;;0.30;;
46925;SDS011;32667;48.248;-1.700;2024-03-23T05:48:35;0.30;;;0.30;;
46925;SDS011;32667;48.248;-1.700;2024-03-23T05:51:01;0.30;;;0.30;;
46925;SDS011;32667;48.248;-1.700;2024-03-23T05:53:28;0.30;;;0.30;;
46925;SDS011;32667;48.248;-1.700;2024-03-23T05:56:01;0.50;;;0.38;;
46925;SDS011;32667;48.248;-1.700;2024-03-23T05:58:31;0.40;;;0.30;;
46925;SDS011;32667;48.248;-1.700;2024-03-23T06:01:00;0.38;;;0.30;;
46925;SDS011;32667;48.248;-1.700;2024-03-23T06:03:27;0.32;;;0.32;;
46925;SDS011;32667;48.248;-1.700;2024-03-23T06:05:54;0.30;;;0.30;;
46925;SDS011;32667;48.248;-1.700;2024-03-23T06:08:20;0.30;;;0.30;;
46925;SDS011;32667;48.248;-1.700;2024-03-23T06:10:46;0.30;;;0.30;;
46925;SDS011;32667;48.248;-1.700;2024-03-23T06:13:12;0.20;;;0.20;;
46925;SDS011;32667;48.248;-1.700;2024-03-23T06:15:39;0.30;;;0.30;;
46925;SDS011;32667;48.248;-1.700;2024-03-23T06:18:04;0.30;;;0.30;;
46925;SDS011;32667;48.248;-1.700;2024-03-23T06:20:35;0.40;;;0.30;;
46925;SDS011;32667;48.248;-1.700;2024-03-23T06:23:03;0.30;;;0.30;;
46925;SDS011;32667;48.248;-1.700;2024-03-23T06:25:29;0.50;;;0.30;;
46925;SDS011;32667;48.248;-1.700;2024-03-23T06:27:55;0.40;;;0.30;;
46925;SDS011;32667;48.248;-1.700;2024-03-23T06:30:20;0.40;;;0.30;;
46925;SDS011;32667;48.248;-1.700;2024-03-23T06:32:51;0.32;;;0.30;;
46925;SDS011;32667;48.248;-1.700;2024-03-23T06:35:18;0.30;;;0.30;;
46925;SDS011;32667;48.248;-1.700;2024-03-23T06:37:44;0.40;;;0.40;;
46925;SDS011;32667;48.248;-1.700;2024-03-23T06:40:10;0.30;;;0.30;;
46925;SDS011;32667;48.248;-1.700;2024-03-23T06:42:36;0.30;;;0.30;;
46925;SDS011;32667;48.248;-1.700;2024-03-23T06:45:02;0.38;;;0.30;;
46925;SDS011;32667;48.248;-1.700;2024-03-23T06:47:30;0.40;;;0.30;;
46925;SDS011;32667;48.248;-1.700;2024-03-23T06:49:56;0.30;;;0.30;;
46925;SDS011;32667;48.248;-1.700;2024-03-23T06:52:22;0.40;;;0.30;;
46925;SDS011;32667;48.248;-1.700;2024-03-23T06:54:50;0.30;;;0.30;;
46925;SDS011;32667;48.248;-1.700;2024-03-23T06:57:16;0.40;;;0.30;;
46925;SDS011;32667;48.248;-1.700;2024-03-23T06:59:41;0.30;;;0.30;;
46925;SDS011;32667;48.248;-1.700;2024-03-23T07:02:08;0.38;;;0.30;;
46925;SDS011;32667;48.248;-1.700;2024-03-23T07:04:34;0.30;;;0.30;;
46925;SDS011;32667;48.248;-1.700;2024-03-23T07:07:00;0.30;;;0.30;;
46925;SDS011;32667;48.248;-1.700;2024-03-23T07:09:27;0.30;;;0.30;;
46925;SDS011;32667;48.248;-1.700;2024-03-23T07:11:56;0.40;;;0.30;;
46925;SDS011;32667;48.248;-1.700;2024-03-23T07:14:22;0.63;;;0.40;;
46925;SDS011;32667;48.248;-1.700;2024-03-23T07:16:51;0.30;;;0.30;;
46925;SDS011;32667;48.248;-1.700;2024-03-23T07:19:17;0.30;;;0.30;;
46925;SDS011;32667;48.248;-1.700;2024-03-23T07:21:50;0.43;;;0.30;;
46925;SDS011;32667;48.248;-1.700;2024-03-23T07:24:18;0.30;;;0.30;;
46925;SDS011;32667;48.248;-1.700;2024-03-23T07:26:44;0.40;;;0.30;;
46925;SDS011;32667;48.248;-1.700;2024-03-23T07:29:10;0.52;;;0.40;;
46925;SDS011;32667;48.248;-1.700;2024-03-23T07:31:35;0.45;;;0.30;;
46925;SDS011;32667;48.248;-1.700;2024-03-23T07:34:01;0.30;;;0.30;;
46925;SDS011;32667;48.248;-1.700;2024-03-23T07:36:27;0.60;;;0.40;;
46925;SDS011;32667;48.248;-1.700;2024-03-23T07:38:55;0.20;;;0.20;;
46925;SDS011;32667;48.248;-1.700;2024-03-23T07:41:21;0.30;;;0.30;;
46925;SDS011;32667;48.248;-1.700;2024-03-23T07:43:47;0.38;;;0.30;;
46925;SDS011;32667;48.248;-1.700;2024-03-23T07:46:14;0.32;;;0.30;;
46925;SDS011;32667;48.248;-1.700;2024-03-23T07:48:40;0.30;;;0.30;;
46925;SDS011;32667;48.248;-1.700;2024-03-23T07:51:08;0.30;;;0.30;;
46925;SDS011;32667;48.248;-1.700;2024-03-23T07:53:36;0.30;;;0.30;;
46925;SDS011;32667;48.248;-1.700;2024-03-23T07:56:06;0.30;;;0.30;;
46925;SDS011;32667;48.248;-1.700;2024-03-23T07:58:35;0.35;;;0.30;;
46925;SDS011;32667;48.248;-1.700;2024-03-23T08:01:05;0.30;;;0.30;;
46925;SDS011;32667;48.248;-1.700;2024-03-23T08:03:35;0.30;;;0.30;;
46925;SDS011;32667;48.248;-1.700;2024-03-23T08:08:34;0.22;;;0.22;;
46925;SDS011;32667;48.248;-1.700;2024-03-23T08:11:13;0.25;;;0.25;;
46925;SDS011;32667;48.248;-1.700;2024-03-23T08:13:41;0.38;;;0.30;;
46925;SDS011;32667;48.248;-1.700;2024-03-23T08:16:20;0.40;;;0.30;;
46925;SDS011;32667;48.248;-1.700;2024-03-23T08:18:51;0.30;;;0.30;;
46925;SDS011;32667;48.248;-1.700;2024-03-23T08:21:17;0.30;;;0.30;;
46925;SDS011;32667;48.248;-1.700;2024-03-23T08:23:43;0.20;;;0.20;;
46925;SDS011;32667;48.248;-1.700;2024-03-23T08:26:12;0.20;;;0.20;;
46925;SDS011;32667;48.248;-1.700;2024-03-23T08:28:42;0.30;;;0.30;;
46925;SDS011;32667;48.248;-1.700;2024-03-23T08:31:08;0.30;;;0.30;;
46925;SDS011;32667;48.248;-1.700;2024-03-23T08:33:36;0.28;;;0.28;;
46925;SDS011;32667;48.248;-1.700;2024-03-23T08:36:05;0.30;;;0.30;;
46925;SDS011;32667;48.248;-1.700;2024-03-23T08:38:33;0.25;;;0.25;;
46925;SDS011;32667;48.248;-1.700;2024-03-23T08:41:00;0.30;;;0.30;;
46925;SDS011;32667;48.248;-1.700;2024-03-23T08:43:30;0.40;;;0.30;;
46925;SDS011;32667;48.248;-1.700;2024-03-23T08:48:34;0.40;;;0.30;;
46925;SDS011;32667;48.248;-1.700;2024-03-23T08:51:04;0.30;;;0.30;;
46925;SDS011;32667;48.248;-1.700;2024-03-23T08:53:31;0.20;;;0.20;;
46925;SDS011;32667;48.248;-1.700;2024-03-23T08:55:58;0.32;;;0.30;;
46925;SDS011;32667;48.248;-1.700;2024-03-23T08:58:28;0.30;;;0.30;;
46925;SDS011;32667;48.248;-1.700;2024-03-23T09:00:54;0.30;;;0.30;;
46925;SDS011;32667;48.248;-1.700;2024-03-23T09:03:22;0.30;;;0.30;;
46925;SDS011;32667;48.248;-1.700;2024-03-23T09:05:48;0.22;;;0.22;;
46925;SDS011;32667;48.248;-1.700;2024-03-23T09:08:15;0.30;;;0.30;;
46925;SDS011;32667;48.248;-1.700;2024-03-23T09:10:41;0.30;;;0.30;;
46925;SDS011;32667;48.248;-1.700;2024-03-23T09:13:10;0.25;;;0.25;;
46925;SDS011;32667;48.248;-1.700;2024-03-23T09:15:45;0.20;;;0.20;;
46925;SDS011;32667;48.248;-1.700;2024-03-23T09:18:15;0.30;;;0.30;;
46925;SDS011;32667;48.248;-1.700;2024-03-23T09:20:41;0.20;;;0.20;;
46925;SDS011;32667;48.248;-1.700;2024-03-23T09:23:12;0.20;;;0.20;;
46925;SDS011;32667;48.248;-1.700;2024-03-23T09:25:38;0.30;;;0.30;;
46925;SDS011;32667;48.248;-1.700;2024-03-23T09:28:07;0.30;;;0.30;;
46925;SDS011;32667;48.248;-1.700;2024-03-23T09:30:40;0.28;;;0.28;;
46925;SDS011;32667;48.248;-1.700;2024-03-23T09:33:09;0.20;;;0.20;;
46925;SDS011;32667;48.248;-1.700;2024-03-23T09:35:38;0.20;;;0.20;;
46925;SDS011;32667;48.248;-1.700;2024-03-23T09:38:05;0.30;;;0.30;;
46925;SDS011;32667;48.248;-1.700;2024-03-23T09:40:34;0.20;;;0.20;;
46925;SDS011;32667;48.248;-1.700;2024-03-23T09:43:04;0.20;;;0.20;;
46925;SDS011;32667;48.248;-1.700;2024-03-23T09:45:32;0.20;;;0.20;;
46925;SDS011;32667;48.248;-1.700;2024-03-23T09:48:00;0.20;;;0.20;;
46925;SDS011;32667;48.248;-1.700;2024-03-23T09:50:29;0.30;;;0.30;;
46925;SDS011;32667;48.248;-1.700;2024-03-23T09:52:55;0.20;;;0.20;;
46925;SDS011;32667;48.248;-1.700;2024-03-23T09:55:21;0.30;;;0.30;;
46925;SDS011;32667;48.248;-1.700;2024-03-23T09:57:46;0.20;;;0.20;;
46925;SDS011;32667;48.248;-1.700;2024-03-23T10:00:15;0.25;;;0.25;;
46925;SDS011;32667;48.248;-1.700;2024-03-23T10:02:41;0.20;;;0.20;;
46925;SDS011;32667;48.248;-1.700;2024-03-23T10:05:20;0.20;;;0.20;;
46925;SDS011;32667;48.248;-1.700;2024-03-23T10:07:51;0.20;;;0.20;;
46925;SDS011;32667;48.248;-1.700;2024-03-23T10:10:20;0.20;;;0.20;;
46925;SDS011;32667;48.248;-1.700;2024-03-23T10:12:49;0.25;;;0.25;;
46925;SDS011;32667;48.248;-1.700;2024-03-23T10:15:25;0.28;;;0.28;;
46925;SDS011;32667;48.248;-1.700;2024-03-23T10:17:51;0.20;;;0.20;;
46925;SDS011;32667;48.248;-1.700;2024-03-23T10:20:21;0.20;;;0.20;;
46925;SDS011;32667;48.248;-1.700;2024-03-23T10:22:48;0.20;;;0.20;;
46925;SDS011;32667;48.248;-1.700;2024-03-23T10:25:16;0.20;;;0.20;;
46925;SDS011;32667;48.248;-1.700;2024-03-23T10:27:43;0.20;;;0.20;;
46925;SDS011;32667;48.248;-1.700;2024-03-23T10:30:12;0.20;;;0.20;;
46925;SDS011;32667;48.248;-1.700;2024-03-23T10:32:42;0.20;;;0.20;;
46925;SDS011;32667;48.248;-1.700;2024-03-23T10:35:17;0.20;;;0.20;;
46925;SDS011;32667;48.248;-1.700;2024-03-23T10:37:49;0.20;;;0.20;;
46925;SDS011;32667;48.248;-1.700;2024-03-23T10:40:18;0.20;;;0.20;;
46925;SDS011;32667;48.248;-1.700;2024-03-23T10:42:44;0.20;;;0.20;;
46925;SDS011;32667;48.248;-1.700;2024-03-23T10:45:10;0.20;;;0.20;;
46925;SDS011;32667;48.248;-1.700;2024-03-23T10:47:38;0.20;;;0.20;;
46925;SDS011;32667;48.248;-1.700;2024-03-23T10:50:06;0.20;;;0.20;;
46925;SDS011;32667;48.248;-1.700;2024-03-23T10:52:45;0.22;;;0.22;;
46925;SDS011;32667;48.248;-1.700;2024-03-23T10:55:14;0.20;;;0.20;;
46925;SDS011;32667;48.248;-1.700;2024-03-23T10:57:53;0.20;;;0.20;;
46925;SDS011;32667;48.248;-1.700;2024-03-23T11:00:20;0.30;;;0.30;;
46925;SDS011;32667;48.248;-1.700;2024-03-23T11:02:48;0.20;;;0.20;;
46925;SDS011;32667;48.248;-1.700;2024-03-23T11:07:54;0.20;;;0.20;;
46925;SDS011;32667;48.248;-1.700;2024-03-23T11:10:30;0.20;;;0.20;;
46925;SDS011;32667;48.248;-1.700;2024-03-23T11:12:58;0.20;;;0.20;;
46925;SDS011;32667;48.248;-1.700;2024-03-23T11:15:43;0.30;;;0.30;;
46925;SDS011;32667;48.248;-1.700;2024-03-23T11:18:09;0.17;;;0.17;;
46925;SDS011;32667;48.248;-1.700;2024-03-23T11:20:37;0.20;;;0.20;;
46925;SDS011;32667;48.248;-1.700;2024-03-23T11:23:04;0.20;;;0.20;;
46925;SDS011;32667;48.248;-1.700;2024-03-23T11:25:30;0.20;;;0.20;;
46925;SDS011;32667;48.248;-1.700;2024-03-23T11:28:13;0.20;;;0.20;;
46925;SDS011;32667;48.248;-1.700;2024-03-23T11:30:44;0.20;;;0.20;;
46925;SDS011;32667;48.248;-1.700;2024-03-23T11:33:09;0.20;;;0.20;;
46925;SDS011;32667;48.248;-1.700;2024-03-23T11:40:35;0.20;;;0.20;;
46925;SDS011;32667;48.248;-1.700;2024-03-23T11:43:05;0.20;;;0.20;;
46925;SDS011;32667;48.248;-1.700;2024-03-23T11:45:40;0.20;;;0.20;;
46925;SDS011;32667;48.248;-1.700;2024-03-23T11:50:43;0.20;;;0.20;;
46925;SDS011;32667;48.248;-1.700;2024-03-23T11:53:14;0.30;;;0.30;;
46925;SDS011;32667;48.248;-1.700;2024-03-23T11:55:53;0.20;;;0.20;;
46925;SDS011;32667;48.248;-1.700;2024-03-23T12:00:49;0.20;;;0.20;;
46925;SDS011;32667;48.248;-1.700;2024-03-23T12:03:30;0.20;;;0.20;;
46925;SDS011;32667;48.248;-1.700;2024-03-23T12:06:00;0.20;;;0.20;;
46925;SDS011;32667;48.248;-1.700;2024-03-23T12:08:30;0.30;;;0.30;;
46925;SDS011;32667;48.248;-1.700;2024-03-23T12:11:11;0.20;;;0.20;;
46925;SDS011;32667;48.248;-1.700;2024-03-23T12:13:38;0.20;;;0.20;;
46925;SDS011;32667;48.248;-1.700;2024-03-23T12:16:10;0.20;;;0.20;;
46925;SDS011;32667;48.248;-1.700;2024-03-23T12:18:46;0.20;;;0.20;;
46925;SDS011;32667;48.248;-1.700;2024-03-23T12:21:14;0.20;;;0.20;;
46925;SDS011;32667;48.248;-1.700;2024-03-23T12:23:40;0.20;;;0.20;;
46925;SDS011;32667;48.248;-1.700;2024-03-23T12:26:07;0.20;;;0.20;;
46925;SDS011;32667;48.248;-1.700;2024-03-23T12:28:35;0.13;;;0.13;;
46925;SDS011;32667;48.248;-1.700;2024-03-23T12:31:00;0.20;;;0.20;;
46925;SDS011;32667;48.248;-1.700;2024-03-23T12:33:29;0.20;;;0.20;;
46925;SDS011;32667;48.248;-1.700;2024-03-23T12:35:55;0.20;;;0.20;;
46925;SDS011;32667;48.248;-1.700;2024-03-23T12:38:21;0.20;;;0.20;;
46925;SDS011;32667;48.248;-1.700;2024-03-23T12:40:47;0.20;;;0.20;;
46925;SDS011;32667;48.248;-1.700;2024-03-23T12:43:13;0.20;;;0.20;;
46925;SDS011;32667;48.248;-1.700;2024-03-23T12:45:39;0.20;;;0.20;;
46925;SDS011;32667;48.248;-1.700;2024-03-23T12:48:05;0.20;;;0.20;;
46925;SDS011;32667;48.248;-1.700;2024-03-23T12:50:34;0.20;;;0.20;;
46925;SDS011;32667;48.248;-1.700;2024-03-23T12:53:00;0.20;;;0.20;;
46925;SDS011;32667;48.248;-1.700;2024-03-23T12:55:26;0.20;;;0.20;;
46925;SDS011;32667;48.248;-1.700;2024-03-23T12:57:51;0.20;;;0.20;;
46925;SDS011;32667;48.248;-1.700;2024-03-23T13:00:19;0.20;;;0.20;;
46925;SDS011;32667;48.248;-1.700;2024-03-23T13:02:45;0.20;;;0.20;;
46925;SDS011;32667;48.248;-1.700;2024-03-23T13:05:11;0.20;;;0.20;;
46925;SDS011;32667;48.248;-1.700;2024-03-23T13:07:37;0.20;;;0.20;;
46925;SDS011;32667;48.248;-1.700;2024-03-23T13:10:04;0.20;;;0.20;;
46925;SDS011;32667;48.248;-1.700;2024-03-23T13:12:31;0.20;;;0.20;;
46925;SDS011;32667;48.248;-1.700;2024-03-23T13:14:58;0.20;;;0.20;;
46925;SDS011;32667;48.248;-1.700;2024-03-23T13:17:24;0.10;;;0.10;;
46925;SDS011;32667;48.248;-1.700;2024-03-23T13:19:52;0.10;;;0.10;;
46925;SDS011;32667;48.248;-1.700;2024-03-23T13:22:18;0.20;;;0.20;;
46925;SDS011;32667;48.248;-1.700;2024-03-23T13:24:43;0.20;;;0.20;;
46925;SDS011;32667;48.248;-1.700;2024-03-23T13:27:09;0.20;;;0.20;;
46925;SDS011;32667;48.248;-1.700;2024-03-23T13:29:36;0.20;;;0.20;;
46925;SDS011;32667;48.248;-1.700;2024-03-23T13:32:03;0.20;;;0.20;;
46925;SDS011;32667;48.248;-1.700;2024-03-23T13:34:29;0.20;;;0.20;;
46925;SDS011;32667;48.248;-1.700;2024-03-23T13:36:55;0.20;;;0.20;;
46925;SDS011;32667;48.248;-1.700;2024-03-23T13:39:23;0.20;;;0.20;;
46925;SDS011;32667;48.248;-1.700;2024-03-23T13:41:49;0.20;;;0.20;;
46925;SDS011;32667;48.248;-1.700;2024-03-23T13:44:17;0.20;;;0.20;;
46925;SDS011;32667;48.248;-1.700;2024-03-23T13:46:43;0.20;;;0.20;;
46925;SDS011;32667;48.248;-1.700;2024-03-23T13:49:13;0.20;;;0.20;;
46925;SDS011;32667;48.248;-1.700;2024-03-23T13:51:52;0.20;;;0.20;;
46925;SDS011;32667;48.248;-1.700;2024-03-23T13:54:20;0.20;;;0.20;;
46925;SDS011;32667;48.248;-1.700;2024-03-23T13:56:50;0.20;;;0.20;;
46925;SDS011;32667;48.248;-1.700;2024-03-23T13:59:16;0.20;;;0.20;;
46925;SDS011;32667;48.248;-1.700;2024-03-23T14:01:43;0.20;;;0.20;;
46925;SDS011;32667;48.248;-1.700;2024-03-23T14:04:10;0.20;;;0.20;;
46925;SDS011;32667;48.248;-1.700;2024-03-23T14:06:36;0.20;;;0.20;;
46925;SDS011;32667;48.248;-1.700;2024-03-23T14:09:02;0.20;;;0.20;;
46925;SDS011;32667;48.248;-1.700;2024-03-23T14:11:33;0.20;;;0.20;;
46925;SDS011;32667;48.248;-1.700;2024-03-23T14:14:00;0.20;;;0.20;;
46925;SDS011;32667;48.248;-1.700;2024-03-23T14:16:25;0.20;;;0.20;;
46925;SDS011;32667;48.248;-1.700;2024-03-23T14:18:51;0.20;;;0.20;;
46925;SDS011;32667;48.248;-1.700;2024-03-23T14:21:20;0.13;;;0.13;;
46925;SDS011;32667;48.248;-1.700;2024-03-23T14:23:46;0.10;;;0.10;;
46925;SDS011;32667;48.248;-1.700;2024-03-23T14:26:11;0.10;;;0.10;;
46925;SDS011;32667;48.248;-1.700;2024-03-23T14:28:37;0.20;;;0.20;;
46925;SDS011;32667;48.248;-1.700;2024-03-23T14:31:03;0.20;;;0.20;;
46925;SDS011;32667;48.248;-1.700;2024-03-23T14:33:35;0.20;;;0.20;;
46925;SDS011;32667;48.248;-1.700;2024-03-23T14:36:02;0.20;;;0.20;;
46925;SDS011;32667;48.248;-1.700;2024-03-23T14:38:29;0.20;;;0.20;;
46925;SDS011;32667;48.248;-1.700;2024-03-23T14:40:57;0.20;;;0.20;;
46925;SDS011;32667;48.248;-1.700;2024-03-23T14:43:28;0.15;;;0.15;;
46925;SDS011;32667;48.248;-1.700;2024-03-23T14:46:12;0.20;;;0.20;;
46925;SDS011;32667;48.248;-1.700;2024-03-23T14:48:40;0.20;;;0.20;;
46925;SDS011;32667;48.248;-1.700;2024-03-23T14:51:09;0.20;;;0.20;;
46925;SDS011;32667;48.248;-1.700;2024-03-23T14:53:36;0.20;;;0.20;;
46925;SDS011;32667;48.248;-1.700;2024-03-23T14:56:08;0.13;;;0.13;;
46925;SDS011;32667;48.248;-1.700;2024-03-23T14:58:40;0.20;;;0.20;;
46925;SDS011;32667;48.248;-1.700;2024-03-23T15:01:06;0.20;;;0.20;;
46925;SDS011;32667;48.248;-1.700;2024-03-23T15:03:42;0.20;;;0.20;;
46925;SDS011;32667;48.248;-1.700;2024-03-23T15:06:16;0.20;;;0.20;;
46925;SDS011;32667;48.248;-1.700;2024-03-23T15:08:42;0.15;;;0.15;;
46925;SDS011;32667;48.248;-1.700;2024-03-23T15:11:08;0.15;;;0.15;;
46925;SDS011;32667;48.248;-1.700;2024-03-23T15:13:37;0.20;;;0.20;;
46925;SDS011;32667;48.248;-1.700;2024-03-23T15:16:06;0.10;;;0.10;;
46925;SDS011;32667;48.248;-1.700;2024-03-23T15:18:34;0.20;;;0.20;;
46925;SDS011;32667;48.248;-1.700;2024-03-23T15:21:03;0.20;;;0.20;;
46925;SDS011;32667;48.248;-1.700;2024-03-23T15:23:32;0.10;;;0.10;;
46925;SDS011;32667;48.248;-1.700;2024-03-23T15:25:59;0.30;;;0.30;;
46925;SDS011;32667;48.248;-1.700;2024-03-23T15:28:26;0.20;;;0.20;;
46925;SDS011;32667;48.248;-1.700;2024-03-23T15:31:13;0.20;;;0.20;;
46925;SDS011;32667;48.248;-1.700;2024-03-23T15:33:39;0.15;;;0.15;;
46925;SDS011;32667;48.248;-1.700;2024-03-23T15:36:05;0.20;;;0.20;;
46925;SDS011;32667;48.248;-1.700;2024-03-23T15:38:31;0.20;;;0.20;;
46925;SDS011;32667;48.248;-1.700;2024-03-23T15:40:58;0.20;;;0.20;;
46925;SDS011;32667;48.248;-1.700;2024-03-23T15:43:24;0.20;;;0.20;;
46925;SDS011;32667;48.248;-1.700;2024-03-23T15:45:53;0.20;;;0.20;;
46925;SDS011;32667;48.248;-1.700;2024-03-23T15:48:25;0.20;;;0.20;;